Weather at Tenneco Station Four Airport

Public forecast

Using degrees Celsius for public forecast. Weather courtesy of forecast.io.

Closest aviation weather report (METAR) to Tenneco Station Four Airport

Closest report is Leigh Creek Airport, 60.5 nm (112.1 km) NW. Retrieved 2021/06/15 16:00 UTC (60 minutes ago):

YLEC 151600Z AUTO 18005KT 9999 // NCD 06/04 Q1013

Closest aviation forecast (TAF) to Tenneco Station Four Airport

Closest forecast is Woomera Airfield, 131.8 nm (244.2 km) W. Retrieved 2021/06/15 12:00 UTC (5 hours ago):

TAF YPWR 151112Z 1512/1606 31012KT CAVOK FM160000 30018KT 9999 SCT030 FM160300 26016G29KT 9999 SCT030